Time;durP1;ratioP1;P1;durP2;ratioP2;P2;SDS_P1;SDS_P2;PMS_P1;PMS_P2;Temp;Humidity;BMP_temperature;BMP_pressure;BME280_temperature;BME280_humidity;BME280_pressure;Samples;Min_cycle;Max_cycle;Signal;HPM_P1;HPM_P2
2023/05/10 00:01:09;;;;;;;34.08;17.63;;;;;;;;;;4972515;28;20198;-74
2023/05/10 00:03:35;;;;;;;37.63;18.85;;;;;;;;;;4972820;28;20188;-74
2023/05/10 00:06:00;;;;;;;45.10;20.35;;;;;;;;;;4993330;23;20230;-69
2023/05/10 00:08:25;;;;;;;42.38;18.45;;;;;;;;;;4988980;28;20183;-67
2023/05/10 00:10:50;;;;;;;40.30;18.25;;;;;;;;;;4991053;28;20217;-68
2023/05/10 00:13:16;;;;;;;40.53;18.60;;;;;;;;;;4989961;28;20184;-68
2023/05/10 00:15:41;;;;;;;44.80;19.10;;;;;;;;;;4990312;28;20210;-68
2023/05/10 00:18:06;;;;;;;38.80;17.33;;;;;;;;;;4992475;28;20258;-68
2023/05/10 00:20:31;;;;;;;44.20;19.27;;;;;;;;;;4989058;28;20254;-68
2023/05/10 00:22:57;;;;;;;36.65;17.65;;;;;;;;;;4988632;28;20186;-69
2023/05/10 00:25:22;;;;;;;37.15;18.20;;;;;;;;;;5003039;28;20669;-68
2023/05/10 00:27:47;;;;;;;44.20;19.48;;;;;;;;;;5003209;28;20183;-69
2023/05/10 00:30:12;;;;;;;42.72;17.02;;;;;;;;;;4989500;28;20202;-69
2023/05/10 00:32:38;;;;;;;39.42;16.67;;;;;;;;;;4989337;28;20185;-68
2023/05/10 00:35:03;;;;;;;36.92;17.00;;;;;;;;;;4989597;28;20237;-68
2023/05/10 00:37:28;;;;;;;45.15;18.02;;;;;;;;;;4987887;28;20286;-69
2023/05/10 00:39:53;;;;;;;43.38;18.65;;;;;;;;;;4988869;28;20230;-68
2023/05/10 00:42:18;;;;;;;52.20;21.20;;;;;;;;;;4988898;28;20193;-68
2023/05/10 00:44:44;;;;;;;42.75;18.92;;;;;;;;;;4993156;28;20187;-68
2023/05/10 00:47:09;;;;;;;45.20;18.90;;;;;;;;;;4987273;28;20198;-68
2023/05/10 00:49:35;;;;;;;55.17;20.48;;;;;;;;;;4987743;28;20796;-68
2023/05/10 00:52:01;;;;;;;47.13;20.02;;;;;;;;;;4984192;28;20233;-68
2023/05/10 00:54:27;;;;;;;56.78;22.08;;;;;;;;;;4988390;28;20182;-69
2023/05/10 00:56:52;;;;;;;53.08;21.33;;;;;;;;;;4986055;28;20203;-69
2023/05/10 00:59:17;;;;;;;56.83;21.13;;;;;;;;;;4987810;28;20219;-69
2023/05/10 01:01:43;;;;;;;55.50;20.10;;;;;;;;;;4988089;28;20189;-69
2023/05/10 01:04:09;;;;;;;57.03;20.23;;;;;;;;;;4988389;28;20633;-68
2023/05/10 01:06:35;;;;;;;57.20;22.75;;;;;;;;;;4987909;28;20211;-68
2023/05/10 01:09:00;;;;;;;57.70;24.55;;;;;;;;;;4987337;28;20179;-68
2023/05/10 01:11:25;;;;;;;58.33;24.27;;;;;;;;;;4986887;28;20679;-67
2023/05/10 01:13:55;;;;;;;63.40;24.10;;;;;;;;;;4990757;28;20186;-68
2023/05/10 01:16:20;;;;;;;64.90;22.77;;;;;;;;;;4987327;28;20416;-68
2023/05/10 01:18:46;;;;;;;61.67;23.52;;;;;;;;;;4987410;28;20641;-68
2023/05/10 01:21:17;;;;;;;69.25;26.52;;;;;;;;;;4986527;28;20264;-68
2023/05/10 01:23:48;;;;;;;78.47;28.83;;;;;;;;;;4989450;28;20874;-68
2023/05/10 01:26:22;;;;;;;77.47;27.30;;;;;;;;;;4988847;28;20852;-68
2023/05/10 01:28:47;;;;;;;83.00;28.02;;;;;;;;;;4988890;28;20183;-68
2023/05/10 01:31:18;;;;;;;77.20;26.97;;;;;;;;;;4986382;28;20210;-68
2023/05/10 01:33:52;;;;;;;71.38;25.92;;;;;;;;;;4985197;28;20427;-68
2023/05/10 01:36:27;;;;;;;76.72;26.42;;;;;;;;;;4986629;28;20779;-68
2023/05/10 01:38:55;;;;;;;86.88;25.70;;;;;;;;;;4986600;28;20193;-68
2023/05/10 01:41:20;;;;;;;71.75;25.70;;;;;;;;;;4986776;28;20186;-68
2023/05/10 01:43:46;;;;;;;78.13;26.33;;;;;;;;;;4985794;28;20210;-68
2023/05/10 01:46:16;;;;;;;82.35;25.60;;;;;;;;;;4989403;28;20195;-68
2023/05/10 01:48:47;;;;;;;71.40;26.17;;;;;;;;;;4986330;28;20242;-68
2023/05/10 01:51:13;;;;;;;82.53;27.98;;;;;;;;;;4987197;28;20312;-68
2023/05/10 01:53:38;;;;;;;75.88;28.08;;;;;;;;;;4985457;28;20807;-68
2023/05/10 01:56:04;;;;;;;66.75;25.45;;;;;;;;;;4986385;28;20209;-68
2023/05/10 01:58:31;;;;;;;67.30;26.95;;;;;;;;;;4989519;28;20755;-68
2023/05/10 02:00:58;;;;;;;66.28;26.33;;;;;;;;;;4991484;28;20190;-68
2023/05/10 02:03:24;;;;;;;56.15;26.73;;;;;;;;;;4991113;28;20790;-69
2023/05/10 02:05:50;;;;;;;54.17;25.60;;;;;;;;;;4995215;28;20294;-68
2023/05/10 02:08:17;;;;;;;63.03;26.27;;;;;;;;;;4987262;28;20261;-68
2023/05/10 02:10:42;;;;;;;64.53;26.73;;;;;;;;;;4990234;28;20195;-69
2023/05/10 02:13:08;;;;;;;63.92;26.38;;;;;;;;;;4988688;28;20179;-68
2023/05/10 02:15:33;;;;;;;55.30;24.52;;;;;;;;;;4989290;28;20199;-68
2023/05/10 02:18:00;;;;;;;65.63;24.92;;;;;;;;;;4989820;28;20683;-69
2023/05/10 02:20:25;;;;;;;56.35;24.23;;;;;;;;;;4990211;28;20183;-68
2023/05/10 02:22:52;;;;;;;56.00;24.63;;;;;;;;;;4990173;28;20177;-69
2023/05/10 02:25:18;;;;;;;61.08;26.25;;;;;;;;;;4997846;28;20758;-68
2023/05/10 02:27:44;;;;;;;56.13;22.85;;;;;;;;;;4988964;28;20187;-67
2023/05/10 02:30:10;;;;;;;54.50;24.38;;;;;;;;;;4989305;28;20211;-68
2023/05/10 02:32:36;;;;;;;53.65;24.85;;;;;;;;;;4989754;28;20171;-67
2023/05/10 02:35:02;;;;;;;51.22;23.05;;;;;;;;;;4990341;28;20559;-68
2023/05/10 02:37:28;;;;;;;55.08;23.30;;;;;;;;;;4989561;28;20529;-68
2023/05/10 02:39:54;;;;;;;59.25;23.67;;;;;;;;;;4989076;28;20188;-68
2023/05/10 02:42:22;;;;;;;56.95;24.25;;;;;;;;;;4989332;28;20244;-68
2023/05/10 02:44:48;;;;;;;50.88;21.92;;;;;;;;;;4989522;28;20477;-67
2023/05/10 02:47:14;;;;;;;57.35;23.55;;;;;;;;;;4986855;28;20449;-68
2023/05/10 02:49:39;;;;;;;46.47;22.83;;;;;;;;;;4987992;28;20206;-68
2023/05/10 02:52:06;;;;;;;50.17;22.33;;;;;;;;;;4987277;28;20187;-69
2023/05/10 02:54:33;;;;;;;44.83;20.75;;;;;;;;;;4987722;28;20185;-68
2023/05/10 02:57:00;;;;;;;50.90;21.90;;;;;;;;;;4987573;28;20772;-68
2023/05/10 02:59:26;;;;;;;55.83;22.70;;;;;;;;;;4988307;28;20262;-68
2023/05/10 03:01:51;;;;;;;49.03;21.05;;;;;;;;;;4989434;28;20175;-68
2023/05/10 03:04:16;;;;;;;47.45;19.85;;;;;;;;;;4988912;28;20186;-68
2023/05/10 03:06:41;;;;;;;46.38;22.55;;;;;;;;;;4951541;28;1086615;-68
2023/05/10 03:09:09;;;;;;;53.88;21.67;;;;;;;;;;4987919;28;20194;-69
2023/05/10 03:11:34;;;;;;;50.10;20.25;;;;;;;;;;4989533;28;20203;-68
2023/05/10 03:14:07;;;;;;;52.22;22.40;;;;;;;;;;4989261;28;20195;-68
2023/05/10 03:16:38;;;;;;;47.70;21.80;;;;;;;;;;4990606;28;20331;-68
2023/05/10 03:19:11;;;;;;;50.90;22.55;;;;;;;;;;4994606;28;20179;-68
2023/05/10 03:21:38;;;;;;;56.90;23.83;;;;;;;;;;4989119;28;20186;-68
2023/05/10 03:24:08;;;;;;;56.80;23.13;;;;;;;;;;5007783;28;20197;-68
2023/05/10 03:26:33;;;;;;;63.20;24.70;;;;;;;;;;4988827;28;20203;-68
2023/05/10 03:28:59;;;;;;;63.63;23.85;;;;;;;;;;4987096;28;20222;-68
2023/05/10 03:31:24;;;;;;;69.53;25.15;;;;;;;;;;4989909;28;20665;-68
2023/05/10 03:33:50;;;;;;;65.57;24.05;;;;;;;;;;5005890;28;20692;-68
2023/05/10 03:36:16;;;;;;;70.57;25.13;;;;;;;;;;4989118;28;20206;-68
2023/05/10 03:38:41;;;;;;;54.53;24.02;;;;;;;;;;4989044;28;20182;-68
2023/05/10 03:41:06;;;;;;;62.55;25.50;;;;;;;;;;4988120;28;20202;-68
2023/05/10 03:43:31;;;;;;;64.03;23.63;;;;;;;;;;4988246;28;20195;-67
2023/05/10 03:45:57;;;;;;;57.10;25.50;;;;;;;;;;4991294;28;20574;-67
2023/05/10 03:48:22;;;;;;;67.25;25.55;;;;;;;;;;4988608;28;20187;-70
2023/05/10 03:50:49;;;;;;;69.57;27.20;;;;;;;;;;4989189;28;20214;-68
2023/05/10 03:53:14;;;;;;;63.55;26.50;;;;;;;;;;4986756;28;20563;-68
2023/05/10 03:55:39;;;;;;;65.03;26.67;;;;;;;;;;4989063;28;20233;-68
2023/05/10 03:58:04;;;;;;;61.92;27.42;;;;;;;;;;4988938;28;20790;-68
2023/05/10 04:00:30;;;;;;;65.32;27.05;;;;;;;;;;4990829;28;20206;-68
2023/05/10 04:02:56;;;;;;;73.28;27.73;;;;;;;;;;4988283;28;20261;-68
2023/05/10 04:05:21;;;;;;;65.72;30.50;;;;;;;;;;4988400;28;20219;-68
2023/05/10 04:07:46;;;;;;;62.40;28.73;;;;;;;;;;4989179;28;20307;-68
2023/05/10 04:10:12;;;;;;;67.30;27.73;;;;;;;;;;4990053;28;20204;-68
2023/05/10 04:12:37;;;;;;;65.30;28.10;;;;;;;;;;5003419;28;20277;-68
2023/05/10 04:15:02;;;;;;;69.45;28.88;;;;;;;;;;4988524;28;20328;-68
2023/05/10 04:17:27;;;;;;;62.25;25.58;;;;;;;;;;4986456;28;20179;-68
2023/05/10 04:19:54;;;;;;;60.58;27.25;;;;;;;;;;4987786;28;20608;-68
2023/05/10 04:22:19;;;;;;;60.00;28.10;;;;;;;;;;4986736;28;20206;-68
2023/05/10 04:24:45;;;;;;;61.00;29.17;;;;;;;;;;4988171;28;20277;-68
2023/05/10 04:27:11;;;;;;;69.78;30.02;;;;;;;;;;4988150;28;20668;-68
2023/05/10 04:29:36;;;;;;;67.78;30.30;;;;;;;;;;4987307;28;20301;-68
2023/05/10 04:32:02;;;;;;;69.00;31.08;;;;;;;;;;4988159;28;21061;-69
2023/05/10 04:34:27;;;;;;;69.13;31.95;;;;;;;;;;4989124;28;20183;-68
2023/05/10 04:36:52;;;;;;;65.47;31.05;;;;;;;;;;4987401;28;20190;-68
2023/05/10 04:39:17;;;;;;;68.70;32.95;;;;;;;;;;4987472;28;20179;-69
2023/05/10 04:41:43;;;;;;;62.88;32.03;;;;;;;;;;4986066;28;20597;-69
2023/05/10 04:44:08;;;;;;;75.68;33.58;;;;;;;;;;4989381;28;20180;-69
2023/05/10 04:46:33;;;;;;;62.47;33.30;;;;;;;;;;4986802;28;20763;-69
2023/05/10 04:48:58;;;;;;;63.83;33.72;;;;;;;;;;4988560;28;20214;-69
2023/05/10 04:51:23;;;;;;;66.63;35.33;;;;;;;;;;4988842;28;20206;-67
2023/05/10 04:53:49;;;;;;;68.40;33.67;;;;;;;;;;4988030;28;20183;-67
2023/05/10 04:56:14;;;;;;;72.28;34.42;;;;;;;;;;4986836;28;20260;-67
2023/05/10 04:58:39;;;;;;;64.88;34.92;;;;;;;;;;4988674;28;20215;-68
2023/05/10 05:01:06;;;;;;;71.53;34.83;;;;;;;;;;4993185;28;20274;-68
2023/05/10 05:03:32;;;;;;;65.45;33.15;;;;;;;;;;4987608;28;20179;-68
2023/05/10 05:05:57;;;;;;;58.78;31.90;;;;;;;;;;4989621;28;20651;-69
2023/05/10 05:08:23;;;;;;;67.97;31.98;;;;;;;;;;4987777;28;20183;-68
2023/05/10 05:10:50;;;;;;;61.28;30.60;;;;;;;;;;4989153;28;20302;-68
2023/05/10 05:13:15;;;;;;;62.30;29.83;;;;;;;;;;4986908;28;20500;-68
2023/05/10 05:15:40;;;;;;;65.47;29.60;;;;;;;;;;4986284;28;20325;-68
2023/05/10 05:18:05;;;;;;;64.03;29.50;;;;;;;;;;4986809;28;20672;-68
2023/05/10 05:20:31;;;;;;;64.95;29.55;;;;;;;;;;4990422;28;20195;-68
2023/05/10 05:22:57;;;;;;;61.13;29.27;;;;;;;;;;4990274;28;20230;-68
2023/05/10 05:25:22;;;;;;;62.88;29.40;;;;;;;;;;4988990;28;20286;-68
2023/05/10 05:27:47;;;;;;;55.15;28.02;;;;;;;;;;4991773;28;20725;-68
2023/05/10 05:30:12;;;;;;;59.95;30.02;;;;;;;;;;4987869;28;20669;-68
2023/05/10 05:32:38;;;;;;;62.70;30.30;;;;;;;;;;4988500;28;20193;-68
2023/05/10 05:35:03;;;;;;;53.67;29.60;;;;;;;;;;4990627;28;20210;-68
2023/05/10 05:37:28;;;;;;;55.47;30.95;;;;;;;;;;4991396;28;20301;-68
2023/05/10 05:39:54;;;;;;;55.88;29.00;;;;;;;;;;4990472;28;20195;-68
2023/05/10 05:42:20;;;;;;;57.05;28.05;;;;;;;;;;4992041;28;20182;-68
2023/05/10 05:44:45;;;;;;;53.67;26.52;;;;;;;;;;4994577;28;20592;-69
2023/05/10 05:47:10;;;;;;;54.92;26.85;;;;;;;;;;4988623;28;20294;-68
2023/05/10 05:49:36;;;;;;;53.05;27.90;;;;;;;;;;4990269;28;20179;-68
2023/05/10 05:52:02;;;;;;;46.15;25.48;;;;;;;;;;4989752;28;20278;-68
2023/05/10 05:54:28;;;;;;;54.20;25.27;;;;;;;;;;4992106;28;20178;-68
2023/05/10 05:56:54;;;;;;;49.72;24.00;;;;;;;;;;4989294;28;20207;-67
2023/05/10 05:59:19;;;;;;;46.00;21.90;;;;;;;;;;4989914;28;20183;-68
2023/05/10 06:01:45;;;;;;;39.80;20.52;;;;;;;;;;4990424;28;20197;-67
2023/05/10 06:04:10;;;;;;;45.15;19.90;;;;;;;;;;4990925;28;20179;-67
2023/05/10 06:06:36;;;;;;;44.20;22.08;;;;;;;;;;4992345;22;20705;-70
2023/05/10 06:09:01;;;;;;;45.88;20.88;;;;;;;;;;4975670;28;20593;-73
2023/05/10 06:11:26;;;;;;;37.42;18.27;;;;;;;;;;4977076;28;20333;-71
2023/05/10 06:13:51;;;;;;;36.70;18.13;;;;;;;;;;4973494;28;20179;-71
2023/05/10 06:16:17;;;;;;;33.95;18.27;;;;;;;;;;4973509;28;20200;-71
2023/05/10 06:18:42;;;;;;;34.30;16.55;;;;;;;;;;4974775;28;20183;-71
2023/05/10 06:21:08;;;;;;;26.90;14.60;;;;;;;;;;4973483;28;21457;-71
2023/05/10 06:23:33;;;;;;;27.95;14.77;;;;;;;;;;4972050;28;20187;-71
2023/05/10 06:25:58;;;;;;;24.95;13.45;;;;;;;;;;4976998;28;20258;-71
2023/05/10 06:28:23;;;;;;;20.73;12.38;;;;;;;;;;4973059;28;20182;-71
2023/05/10 06:30:49;;;;;;;19.33;11.60;;;;;;;;;;4971200;28;21044;-72
2023/05/10 06:33:15;;;;;;;18.58;10.48;;;;;;;;;;4972618;28;20753;-72
2023/05/10 06:35:41;;;;;;;21.70;10.75;;;;;;;;;;4973595;28;20331;-71
2023/05/10 06:38:06;;;;;;;19.02;9.68;;;;;;;;;;4972123;28;20192;-71
2023/05/10 06:40:31;;;;;;;21.38;10.02;;;;;;;;;;4972765;28;20557;-71
2023/05/10 06:42:56;;;;;;;20.10;10.38;;;;;;;;;;4974850;28;20187;-71
2023/05/10 06:45:21;;;;;;;21.48;9.93;;;;;;;;;;4992820;28;20199;-71
2023/05/10 06:47:46;;;;;;;20.30;10.48;;;;;;;;;;4973252;28;20926;-72
2023/05/10 06:50:12;;;;;;;19.98;10.20;;;;;;;;;;4974507;28;20212;-72
2023/05/10 06:52:37;;;;;;;20.40;10.15;;;;;;;;;;4972721;28;20191;-72
2023/05/10 06:55:03;;;;;;;24.48;10.95;;;;;;;;;;4975197;28;20198;-71
2023/05/10 06:57:28;;;;;;;18.10;10.88;;;;;;;;;;4973662;28;20187;-72
2023/05/10 06:59:55;;;;;;;19.35;10.85;;;;;;;;;;4974137;28;21011;-72
2023/05/10 07:02:20;;;;;;;18.20;8.93;;;;;;;;;;4974334;28;20677;-72
2023/05/10 07:04:46;;;;;;;18.80;9.45;;;;;;;;;;4973988;28;20188;-70
2023/05/10 07:07:12;;;;;;;20.23;9.93;;;;;;;;;;4976427;28;20226;-70
2023/05/10 07:09:37;;;;;;;14.98;8.30;;;;;;;;;;4973207;28;20179;-70
2023/05/10 07:12:02;;;;;;;15.57;8.48;;;;;;;;;;4973767;28;20562;-71
2023/05/10 07:14:27;;;;;;;16.40;8.45;;;;;;;;;;4973895;28;20181;-71
2023/05/10 07:16:53;;;;;;;15.65;8.15;;;;;;;;;;4980599;28;20199;-70
2023/05/10 07:19:18;;;;;;;14.02;8.40;;;;;;;;;;4974729;28;20183;-71
2023/05/10 07:21:43;;;;;;;14.65;8.13;;;;;;;;;;4973135;28;20184;-71
2023/05/10 07:24:09;;;;;;;15.05;8.23;;;;;;;;;;4975295;28;20226;-71
2023/05/10 07:26:37;;;;;;;12.32;7.50;;;;;;;;;;4971568;28;21845;-71
2023/05/10 07:29:02;;;;;;;12.73;7.68;;;;;;;;;;4972945;28;20191;-71
2023/05/10 07:31:28;;;;;;;13.32;7.35;;;;;;;;;;4970338;28;20204;-71
2023/05/10 07:33:53;;;;;;;14.98;7.57;;;;;;;;;;4974043;28;20180;-71
2023/05/10 07:36:18;;;;;;;15.02;5.93;;;;;;;;;;4975067;28;20809;-70
2023/05/10 07:38:43;;;;;;;12.32;6.30;;;;;;;;;;4971506;28;22213;-71
2023/05/10 07:41:09;;;;;;;10.60;5.97;;;;;;;;;;4971560;28;20194;-70
2023/05/10 07:43:34;;;;;;;10.93;6.72;;;;;;;;;;4967071;28;20187;-70
2023/05/10 07:45:59;;;;;;;10.98;6.00;;;;;;;;;;4975017;28;20216;-71
2023/05/10 07:48:25;;;;;;;9.02;5.35;;;;;;;;;;4973125;28;20175;-71
2023/05/10 07:50:50;;;;;;;14.32;4.65;;;;;;;;;;4971786;28;20211;-71
2023/05/10 07:53:15;;;;;;;6.20;3.80;;;;;;;;;;4972282;28;20238;-71
2023/05/10 07:55:41;;;;;;;7.00;4.53;;;;;;;;;;4986178;28;20211;-70
2023/05/10 07:58:06;;;;;;;10.52;5.47;;;;;;;;;;4970485;28;20653;-71
2023/05/10 08:00:31;;;;;;;7.70;4.90;;;;;;;;;;4969939;28;20194;-71
2023/05/10 08:02:56;;;;;;;8.52;4.95;;;;;;;;;;4970405;28;20180;-68
2023/05/10 08:05:22;;;;;;;8.27;3.80;;;;;;;;;;4972946;28;20227;-71
2023/05/10 08:07:47;;;;;;;10.65;4.93;;;;;;;;;;4974199;28;20191;-71
2023/05/10 08:10:12;;;;;;;7.38;4.15;;;;;;;;;;4973447;28;20308;-71
2023/05/10 08:12:38;;;;;;;7.18;4.75;;;;;;;;;;4973670;28;20175;-72
2023/05/10 08:15:03;;;;;;;8.82;5.28;;;;;;;;;;4974031;28;21944;-72
2023/05/10 08:17:29;;;;;;;5.25;3.90;;;;;;;;;;4984350;28;20175;-71
2023/05/10 08:19:54;;;;;;;7.22;4.10;;;;;;;;;;4971634;28;20238;-71
2023/05/10 08:22:19;;;;;;;7.05;4.05;;;;;;;;;;4973157;28;20191;-72
2023/05/10 08:24:45;;;;;;;7.15;4.28;;;;;;;;;;4973200;28;20247;-72
2023/05/10 08:27:10;;;;;;;5.60;4.05;;;;;;;;;;4970598;28;20195;-72
2023/05/10 08:29:35;;;;;;;7.95;3.97;;;;;;;;;;4971295;28;21859;-72
2023/05/10 08:32:00;;;;;;;7.60;4.38;;;;;;;;;;4971448;28;20520;-72
2023/05/10 08:34:26;;;;;;;7.03;4.28;;;;;;;;;;4973491;28;20323;-72
2023/05/10 08:36:51;;;;;;;7.15;3.50;;;;;;;;;;4971569;28;20223;-72
2023/05/10 08:39:16;;;;;;;3.60;2.50;;;;;;;;;;4972357;28;20938;-71
2023/05/10 08:41:43;;;;;;;5.30;3.38;;;;;;;;;;4971428;28;20222;-72
2023/05/10 08:44:09;;;;;;;7.50;4.10;;;;;;;;;;4973021;28;20899;-72
2023/05/10 08:46:38;;;;;;;5.85;4.00;;;;;;;;;;4986372;28;20254;-71
2023/05/10 08:49:04;;;;;;;5.00;3.55;;;;;;;;;;4978846;28;20180;-72
2023/05/10 08:51:33;;;;;;;4.40;3.33;;;;;;;;;;4973214;28;20246;-72
2023/05/10 08:53:58;;;;;;;4.45;3.00;;;;;;;;;;4987993;28;20180;-69
2023/05/10 08:56:23;;;;;;;5.55;3.17;;;;;;;;;;4973343;28;20661;-72
2023/05/10 08:58:50;;;;;;;4.55;3.45;;;;;;;;;;4972823;28;20175;-72
2023/05/10 09:01:15;;;;;;;4.53;3.30;;;;;;;;;;4973168;28;20187;-72
2023/05/10 09:03:41;;;;;;;6.15;3.60;;;;;;;;;;4973333;28;20192;-72
2023/05/10 09:06:06;;;;;;;5.65;3.72;;;;;;;;;;4973659;28;20212;-70
2023/05/10 09:08:32;;;;;;;5.57;3.08;;;;;;;;;;4973223;28;20191;-70
2023/05/10 09:10:57;;;;;;;5.47;3.03;;;;;;;;;;4973375;28;21857;-71
2023/05/10 09:13:23;;;;;;;5.95;3.30;;;;;;;;;;4976436;28;20176;-71
2023/05/10 09:15:48;;;;;;;5.75;3.05;;;;;;;;;;4975854;28;20300;-71
2023/05/10 09:18:14;;;;;;;5.05;3.47;;;;;;;;;;4973493;28;20187;-71
2023/05/10 09:20:39;;;;;;;4.53;3.00;;;;;;;;;;4973497;28;20183;-70
2023/05/10 09:23:05;;;;;;;4.72;3.13;;;;;;;;;;4972605;28;20262;-71
2023/05/10 09:25:33;;;;;;;6.43;4.28;;;;;;;;;;4974295;28;20204;-72
2023/05/10 09:27:58;;;;;;;6.18;3.95;;;;;;;;;;4971488;28;20274;-72
2023/05/10 09:30:28;;;;;;;6.38;3.45;;;;;;;;;;4976217;28;20229;-72
2023/05/10 09:32:55;;;;;;;6.65;3.45;;;;;;;;;;4972409;28;20262;-72
2023/05/10 09:35:21;;;;;;;5.05;3.80;;;;;;;;;;4973108;28;20752;-69
2023/05/10 09:37:48;;;;;;;5.20;4.20;;;;;;;;;;4972738;28;20188;-69
2023/05/10 09:40:17;;;;;;;7.80;3.92;;;;;;;;;;4972979;28;20265;-70
2023/05/10 09:42:50;;;;;;;5.85;3.65;;;;;;;;;;4974475;28;20219;-70
2023/05/10 09:45:15;;;;;;;6.22;3.55;;;;;;;;;;4988283;28;20188;-70
2023/05/10 09:47:41;;;;;;;5.07;3.88;;;;;;;;;;4990447;28;20218;-71
2023/05/10 09:50:06;;;;;;;6.25;3.70;;;;;;;;;;4990944;28;20207;-71
2023/05/10 09:52:46;;;;;;;8.32;4.68;;;;;;;;;;4988974;28;20673;-71
2023/05/10 09:55:11;;;;;;;6.32;4.22;;;;;;;;;;4991191;28;20171;-71
2023/05/10 09:57:37;;;;;;;6.35;3.50;;;;;;;;;;4990435;28;20180;-71
2023/05/10 10:00:04;;;;;;;6.68;3.95;;;;;;;;;;4970276;28;20310;-71
2023/05/10 10:02:30;;;;;;;5.50;3.33;;;;;;;;;;4971270;28;20191;-71
2023/05/10 10:04:56;;;;;;;6.10;3.72;;;;;;;;;;4974221;28;20196;-71
2023/05/10 10:07:27;;;;;;;6.57;4.03;;;;;;;;;;4969707;28;20211;-71
2023/05/10 10:09:53;;;;;;;6.93;4.55;;;;;;;;;;4970269;28;20308;-71
2023/05/10 10:12:19;;;;;;;6.35;4.20;;;;;;;;;;4972524;28;20177;-72
2023/05/10 10:14:45;;;;;;;7.57;4.07;;;;;;;;;;4970641;28;20720;-71
2023/05/10 10:17:11;;;;;;;5.38;3.58;;;;;;;;;;4970305;28;20258;-71
2023/05/10 10:19:36;;;;;;;5.55;3.78;;;;;;;;;;4973976;28;20683;-71
2023/05/10 10:22:02;;;;;;;6.75;4.05;;;;;;;;;;4972362;28;20187;-71
2023/05/10 10:24:27;;;;;;;4.47;2.85;;;;;;;;;;4976194;28;20674;-71
2023/05/10 10:26:55;;;;;;;5.35;3.35;;;;;;;;;;4990357;28;20195;-71
2023/05/10 10:29:39;;;;;;;4.13;2.67;;;;;;;;;;4974170;28;20535;-72
2023/05/10 10:32:20;;;;;;;2.92;2.33;;;;;;;;;;4972559;28;21202;-71
2023/05/10 10:34:45;;;;;;;4.30;2.88;;;;;;;;;;4989837;28;20183;-72
2023/05/10 10:37:10;;;;;;;4.50;3.05;;;;;;;;;;4976309;28;20257;-71
2023/05/10 10:39:36;;;;;;;7.05;3.05;;;;;;;;;;4973896;28;20662;-72
2023/05/10 10:42:03;;;;;;;5.35;3.08;;;;;;;;;;4988472;28;20954;-71
2023/05/10 10:44:33;;;;;;;4.25;3.22;;;;;;;;;;4972451;28;20194;-71
2023/05/10 10:47:24;;;;;;;4.95;2.83;;;;;;;;;;4972379;28;20200;-71
2023/05/10 10:49:54;;;;;;;4.90;3.30;;;;;;;;;;4971336;28;20183;-71
2023/05/10 10:52:41;;;;;;;6.38;3.15;;;;;;;;;;4973253;28;20187;-71
2023/05/10 10:55:07;;;;;;;6.53;2.92;;;;;;;;;;4972864;28;20418;-71
2023/05/10 10:57:43;;;;;;;4.47;3.45;;;;;;;;;;4973001;28;20176;-71
2023/05/10 11:00:26;;;;;;;4.45;3.65;;;;;;;;;;4971685;28;20219;-71
2023/05/10 11:02:52;;;;;;;4.55;3.53;;;;;;;;;;4987818;28;20183;-71
2023/05/10 11:05:37;;;;;;;3.47;2.78;;;;;;;;;;4974385;28;20269;-71
2023/05/10 11:08:07;;;;;;;7.28;4.07;;;;;;;;;;4973775;28;20191;-71
2023/05/10 11:10:32;;;;;;;5.13;3.72;;;;;;;;;;4987432;28;20211;-71
2023/05/10 11:13:05;;;;;;;5.72;3.45;;;;;;;;;;4972551;28;20184;-71
2023/05/10 11:15:40;;;;;;;5.47;3.20;;;;;;;;;;4971068;28;20215;-71
2023/05/10 11:18:18;;;;;;;6.78;3.17;;;;;;;;;;4973281;28;20195;-71
2023/05/10 11:20:46;;;;;;;4.53;3.00;;;;;;;;;;4972599;28;20601;-71
2023/05/10 11:23:15;;;;;;;8.35;3.95;;;;;;;;;;4973264;28;20183;-71
2023/05/10 11:25:44;;;;;;;4.57;4.18;;;;;;;;;;4972365;28;20313;-70
2023/05/10 11:28:10;;;;;;;4.22;3.83;;;;;;;;;;4972870;28;20266;-70
2023/05/10 11:30:36;;;;;;;4.43;4.00;;;;;;;;;;4970523;28;20216;-70
2023/05/10 11:33:01;;;;;;;4.60;3.58;;;;;;;;;;4987190;28;20534;-71
2023/05/10 11:35:27;;;;;;;6.13;4.45;;;;;;;;;;4972828;28;20662;-72
2023/05/10 11:37:52;;;;;;;6.13;4.50;;;;;;;;;;4972994;28;20187;-72
2023/05/10 11:40:18;;;;;;;6.53;5.80;;;;;;;;;;4973685;28;20227;-72
2023/05/10 11:42:44;;;;;;;4.85;4.30;;;;;;;;;;4972754;28;20188;-71
2023/05/10 11:45:09;;;;;;;5.15;4.45;;;;;;;;;;4991150;28;20657;-71
2023/05/10 11:47:36;;;;;;;5.22;4.32;;;;;;;;;;4972876;28;20223;-71
2023/05/10 11:50:02;;;;;;;5.93;4.53;;;;;;;;;;4971894;28;20188;-70
2023/05/10 11:52:27;;;;;;;4.60;3.97;;;;;;;;;;4970749;28;21916;-70
2023/05/10 11:54:53;;;;;;;4.15;3.75;;;;;;;;;;4973527;28;20214;-70
2023/05/10 11:57:20;;;;;;;7.80;4.50;;;;;;;;;;4971150;28;20689;-70
2023/05/10 11:59:45;;;;;;;6.32;4.93;;;;;;;;;;4970175;28;20534;-70
2023/05/10 12:02:11;;;;;;;7.13;5.80;;;;;;;;;;4970905;28;20194;-72
2023/05/10 12:04:36;;;;;;;7.15;5.10;;;;;;;;;;4972336;28;20331;-71
2023/05/10 12:07:02;;;;;;;5.57;5.00;;;;;;;;;;4990222;23;20322;-73
2023/05/10 12:09:27;;;;;;;5.65;4.57;;;;;;;;;;4972482;28;20191;-73
2023/05/10 12:11:55;;;;;;;4.97;4.45;;;;;;;;;;4975392;28;20204;-74
2023/05/10 12:14:21;;;;;;;7.18;5.57;;;;;;;;;;4990660;28;20215;-74
2023/05/10 12:16:47;;;;;;;6.97;6.07;;;;;;;;;;4995775;28;20195;-74
2023/05/10 12:19:12;;;;;;;9.10;5.90;;;;;;;;;;4990722;28;20188;-74
2023/05/10 12:21:38;;;;;;;7.07;5.30;;;;;;;;;;4990207;28;20179;-74
2023/05/10 12:24:05;;;;;;;7.47;5.13;;;;;;;;;;4974648;28;20433;-74
2023/05/10 12:26:30;;;;;;;8.02;4.57;;;;;;;;;;4975547;28;20320;-74
2023/05/10 12:29:11;;;;;;;7.85;5.03;;;;;;;;;;4970496;28;20223;-73
2023/05/10 12:31:48;;;;;;;10.93;5.45;;;;;;;;;;4971672;28;20214;-74
2023/05/10 12:34:22;;;;;;;9.10;5.82;;;;;;;;;;4972623;28;20266;-73
2023/05/10 12:36:50;;;;;;;13.27;6.35;;;;;;;;;;4970502;28;20204;-73
2023/05/10 12:39:15;;;;;;;12.57;7.35;;;;;;;;;;4985782;28;20208;-74
2023/05/10 12:41:40;;;;;;;12.52;6.95;;;;;;;;;;4970140;28;20338;-73
2023/05/10 12:44:05;;;;;;;13.35;6.28;;;;;;;;;;4970979;28;20191;-74
2023/05/10 12:46:31;;;;;;;18.08;6.18;;;;;;;;;;4974899;28;20200;-74
2023/05/10 12:48:56;;;;;;;13.25;7.13;;;;;;;;;;4972286;28;20187;-74
2023/05/10 12:51:22;;;;;;;15.85;8.10;;;;;;;;;;4971073;28;20239;-73
2023/05/10 12:53:47;;;;;;;12.77;6.95;;;;;;;;;;4972633;28;20179;-73
2023/05/10 12:56:13;;;;;;;12.80;6.47;;;;;;;;;;4974439;28;20203;-73
2023/05/10 12:58:38;;;;;;;10.27;5.65;;;;;;;;;;4970908;28;20188;-73
2023/05/10 13:01:04;;;;;;;10.52;6.22;;;;;;;;;;4969594;28;20307;-75
2023/05/10 13:03:30;;;;;;;10.10;5.95;;;;;;;;;;4970287;28;20183;-73
2023/05/10 13:05:55;;;;;;;9.98;5.97;;;;;;;;;;4970443;28;20281;-73
2023/05/10 13:08:20;;;;;;;12.18;7.03;;;;;;;;;;4970269;28;20191;-74
2023/05/10 13:10:45;;;;;;;11.00;6.78;;;;;;;;;;4969359;28;20218;-73
2023/05/10 13:13:11;;;;;;;12.02;6.38;;;;;;;;;;4969774;28;20598;-74
2023/05/10 13:15:36;;;;;;;10.93;6.57;;;;;;;;;;4969753;28;20262;-74
2023/05/10 13:18:01;;;;;;;10.70;7.15;;;;;;;;;;4973037;28;20633;-74
2023/05/10 13:20:26;;;;;;;10.40;7.10;;;;;;;;;;4985854;28;20184;-74
2023/05/10 13:22:52;;;;;;;9.52;6.95;;;;;;;;;;4974975;28;20187;-74
2023/05/10 13:25:17;;;;;;;9.95;6.68;;;;;;;;;;4972497;28;20179;-74
2023/05/10 13:27:42;;;;;;;11.65;7.47;;;;;;;;;;4971398;28;21845;-74
2023/05/10 13:30:08;;;;;;;10.73;6.80;;;;;;;;;;4970093;28;20191;-74
2023/05/10 13:32:34;;;;;;;10.25;7.65;;;;;;;;;;4973543;28;20653;-74
2023/05/10 13:34:59;;;;;;;11.57;7.00;;;;;;;;;;4970173;28;20179;-74
2023/05/10 13:37:24;;;;;;;10.57;6.30;;;;;;;;;;4970341;28;20580;-74
2023/05/10 13:39:49;;;;;;;9.07;6.72;;;;;;;;;;4970722;28;20206;-74
2023/05/10 13:42:15;;;;;;;10.77;6.95;;;;;;;;;;4970026;28;20191;-73
2023/05/10 13:44:40;;;;;;;10.07;6.05;;;;;;;;;;4973862;28;20183;-74
2023/05/10 13:47:05;;;;;;;11.07;6.80;;;;;;;;;;4981572;28;20248;-73
2023/05/10 13:49:31;;;;;;;12.85;6.60;;;;;;;;;;4985248;28;20183;-73
2023/05/10 13:51:56;;;;;;;10.27;5.72;;;;;;;;;;4970168;28;20199;-73
2023/05/10 13:54:22;;;;;;;9.50;6.43;;;;;;;;;;4989729;28;20787;-73
2023/05/10 13:56:48;;;;;;;7.90;5.57;;;;;;;;;;4973174;28;20230;-73
2023/05/10 13:59:13;;;;;;;8.32;5.35;;;;;;;;;;4973341;28;20269;-73
2023/05/10 14:01:39;;;;;;;8.88;5.15;;;;;;;;;;4974141;28;20195;-74
2023/05/10 14:04:04;;;;;;;12.05;6.40;;;;;;;;;;4988095;28;20211;-73
2023/05/10 14:06:30;;;;;;;10.60;5.80;;;;;;;;;;4972787;28;20219;-74
2023/05/10 14:08:56;;;;;;;8.85;5.78;;;;;;;;;;4973071;28;20234;-73
2023/05/10 14:11:21;;;;;;;9.63;5.82;;;;;;;;;;4971627;28;20633;-73
2023/05/10 14:13:46;;;;;;;12.52;6.18;;;;;;;;;;4973610;28;20239;-73
2023/05/10 14:16:11;;;;;;;9.38;5.60;;;;;;;;;;4972985;28;20191;-73
2023/05/10 14:18:37;;;;;;;8.02;5.45;;;;;;;;;;4975144;28;20567;-73
2023/05/10 14:21:03;;;;;;;8.40;5.30;;;;;;;;;;4975195;28;20218;-73
2023/05/10 14:23:28;;;;;;;9.95;6.13;;;;;;;;;;4988462;28;20266;-73